sensor_id;sensor_type;location;lat;lon;timestamp;pressure;altitude;pressure_sealevel;temperature;humidity
33845;BME280;20145;43.118;25.694;2023-04-19T00:01:35;99090.94;;;11.89;100.00
33845;BME280;20145;43.118;25.694;2023-04-19T00:04:01;99087.78;;;11.76;100.00
33845;BME280;20145;43.118;25.694;2023-04-19T00:06:27;99084.56;;;11.65;100.00
33845;BME280;20145;43.118;25.694;2023-04-19T00:08:55;99077.81;;;11.59;100.00
33845;BME280;20145;43.118;25.694;2023-04-19T00:11:20;99086.56;;;11.52;100.00
33845;BME280;20145;43.118;25.694;2023-04-19T00:13:46;99079.84;;;11.45;100.00
33845;BME280;20145;43.118;25.694;2023-04-19T00:16:11;99074.91;;;11.32;100.00
33845;BME280;20145;43.118;25.694;2023-04-19T00:18:37;99075.75;;;11.33;100.00
33845;BME280;20145;43.118;25.694;2023-04-19T00:21:03;99082.59;;;11.35;100.00
33845;BME280;20145;43.118;25.694;2023-04-19T00:23:29;99078.25;;;11.37;100.00
33845;BME280;20145;43.118;25.694;2023-04-19T00:25:54;99067.50;;;11.15;100.00
33845;BME280;20145;43.118;25.694;2023-04-19T00:28:20;99066.69;;;11.13;100.00
33845;BME280;20145;43.118;25.694;2023-04-19T00:30:45;99064.31;;;11.03;100.00
33845;BME280;20145;43.118;25.694;2023-04-19T00:33:11;99062.66;;;11.00;100.00
33845;BME280;20145;43.118;25.694;2023-04-19T00:35:39;99055.75;;;11.01;100.00
33845;BME280;20145;43.118;25.694;2023-04-19T00:38:08;99065.97;;;11.05;100.00
33845;BME280;20145;43.118;25.694;2023-04-19T00:40:33;99060.00;;;11.03;100.00
33845;BME280;20145;43.118;25.694;2023-04-19T00:43:00;99059.97;;;11.05;100.00
33845;BME280;20145;43.118;25.694;2023-04-19T00:45:25;99054.84;;;11.03;100.00
33845;BME280;20145;43.118;25.694;2023-04-19T00:47:52;99066.81;;;11.07;100.00
33845;BME280;20145;43.118;25.694;2023-04-19T00:50:18;99061.78;;;11.01;100.00
33845;BME280;20145;43.118;25.694;2023-04-19T00:52:45;99068.53;;;11.07;100.00
33845;BME280;20145;43.118;25.694;2023-04-19T00:55:11;99069.31;;;11.12;100.00
33845;BME280;20145;43.118;25.694;2023-04-19T00:57:37;99077.84;;;11.14;100.00
33845;BME280;20145;43.118;25.694;2023-04-19T01:00:03;99073.63;;;11.11;100.00
33845;BME280;20145;43.118;25.694;2023-04-19T01:02:34;99068.41;;;11.13;100.00
33845;BME280;20145;43.118;25.694;2023-04-19T01:05:00;99076.16;;;11.13;100.00
33845;BME280;20145;43.118;25.694;2023-04-19T01:07:26;99072.84;;;11.06;100.00
33845;BME280;20145;43.118;25.694;2023-04-19T01:09:52;99081.38;;;11.10;100.00
33845;BME280;20145;43.118;25.694;2023-04-19T01:12:17;99071.94;;;11.09;100.00
33845;BME280;20145;43.118;25.694;2023-04-19T01:14:43;99069.31;;;11.10;100.00
33845;BME280;20145;43.118;25.694;2023-04-19T01:17:09;99059.25;;;10.97;100.00
33845;BME280;20145;43.118;25.694;2023-04-19T01:19:35;99050.03;;;10.86;100.00
33845;BME280;20145;43.118;25.694;2023-04-19T01:22:01;99065.25;;;10.99;100.00
33845;BME280;20145;43.118;25.694;2023-04-19T01:24:30;99062.69;;;10.97;100.00
33845;BME280;20145;43.118;25.694;2023-04-19T01:26:56;99060.13;;;10.97;100.00
33845;BME280;20145;43.118;25.694;2023-04-19T01:29:21;99062.75;;;10.96;100.00
33845;BME280;20145;43.118;25.694;2023-04-19T01:31:48;99065.41;;;10.91;100.00
33845;BME280;20145;43.118;25.694;2023-04-19T01:34:18;99058.41;;;10.96;100.00
33845;BME280;20145;43.118;25.694;2023-04-19T01:36:44;99055.13;;;10.89;100.00
33845;BME280;20145;43.118;25.694;2023-04-19T01:39:10;99055.19;;;10.86;100.00
33845;BME280;20145;43.118;25.694;2023-04-19T01:41:35;99055.06;;;10.91;100.00
33845;BME280;20145;43.118;25.694;2023-04-19T01:44:01;99050.75;;;10.91;100.00
33845;BME280;20145;43.118;25.694;2023-04-19T01:46:26;99054.25;;;10.89;100.00
33845;BME280;20145;43.118;25.694;2023-04-19T01:48:52;99046.34;;;10.97;100.00
33845;BME280;20145;43.118;25.694;2023-04-19T01:51:17;99053.13;;;11.02;100.00
33845;BME280;20145;43.118;25.694;2023-04-19T01:53:46;99049.63;;;11.06;100.00
33845;BME280;20145;43.118;25.694;2023-04-19T01:56:17;99047.09;;;11.03;100.00
33845;BME280;20145;43.118;25.694;2023-04-19T01:58:42;99045.50;;;10.96;100.00
33845;BME280;20145;43.118;25.694;2023-04-19T02:01:08;99051.41;;;11.03;100.00
33845;BME280;20145;43.118;25.694;2023-04-19T02:03:37;99047.94;;;11.04;100.00
33845;BME280;20145;43.118;25.694;2023-04-19T02:06:03;99041.00;;;11.07;100.00
33845;BME280;20145;43.118;25.694;2023-04-19T02:08:29;99039.31;;;11.06;100.00
33845;BME280;20145;43.118;25.694;2023-04-19T02:10:54;99046.28;;;11.01;100.00
33845;BME280;20145;43.118;25.694;2023-04-19T02:13:20;99040.09;;;11.08;100.00
33845;BME280;20145;43.118;25.694;2023-04-19T02:15:45;99048.72;;;11.09;100.00
33845;BME280;20145;43.118;25.694;2023-04-19T02:18:11;99048.88;;;11.01;100.00
33845;BME280;20145;43.118;25.694;2023-04-19T02:20:38;99036.88;;;10.97;100.00
33845;BME280;20145;43.118;25.694;2023-04-19T02:23:03;99047.19;;;10.97;100.00
33845;BME280;20145;43.118;25.694;2023-04-19T02:25:29;99042.16;;;10.91;100.00
33845;BME280;20145;43.118;25.694;2023-04-19T02:27:55;99047.25;;;10.94;100.00
33845;BME280;20145;43.118;25.694;2023-04-19T02:30:21;99044.81;;;10.88;100.00
33845;BME280;20145;43.118;25.694;2023-04-19T02:32:47;99054.34;;;10.84;100.00
33845;BME280;20145;43.118;25.694;2023-04-19T02:35:13;99054.44;;;10.80;100.00
33845;BME280;20145;43.118;25.694;2023-04-19T02:37:38;99052.88;;;10.69;100.00
33845;BME280;20145;43.118;25.694;2023-04-19T02:40:04;99048.44;;;10.78;100.00
33845;BME280;20145;43.118;25.694;2023-04-19T02:42:30;99042.31;;;10.83;100.00
33845;BME280;20145;43.118;25.694;2023-04-19T02:44:56;99043.13;;;10.85;100.00
33845;BME280;20145;43.118;25.694;2023-04-19T02:47:21;99042.44;;;10.77;100.00
33845;BME280;20145;43.118;25.694;2023-04-19T02:49:47;99037.38;;;10.73;100.00
33845;BME280;20145;43.118;25.694;2023-04-19T02:52:13;99038.19;;;10.75;100.00
33845;BME280;20145;43.118;25.694;2023-04-19T02:54:38;99039.78;;;10.80;100.00
33845;BME280;20145;43.118;25.694;2023-04-19T02:57:04;99032.03;;;10.82;100.00
33845;BME280;20145;43.118;25.694;2023-04-19T02:59:29;99031.97;;;10.86;100.00
33845;BME280;20145;43.118;25.694;2023-04-19T03:01:55;99031.97;;;10.83;100.00
33845;BME280;20145;43.118;25.694;2023-04-19T03:04:20;99037.84;;;10.93;100.00
33845;BME280;20145;43.118;25.694;2023-04-19T03:06:46;99039.50;;;10.96;100.00
33845;BME280;20145;43.118;25.694;2023-04-19T03:09:12;99033.84;;;10.78;100.00
33845;BME280;20145;43.118;25.694;2023-04-19T03:11:38;99044.94;;;10.82;100.00
33845;BME280;20145;43.118;25.694;2023-04-19T03:14:03;99037.38;;;10.71;100.00
33845;BME280;20145;43.118;25.694;2023-04-19T03:16:29;99037.38;;;10.71;100.00
33845;BME280;20145;43.118;25.694;2023-04-19T03:18:54;99033.19;;;10.67;100.00
33845;BME280;20145;43.118;25.694;2023-04-19T03:21:20;99035.06;;;10.56;100.00
33845;BME280;20145;43.118;25.694;2023-04-19T03:23:46;99037.66;;;10.57;100.00
33845;BME280;20145;43.118;25.694;2023-04-19T03:26:11;99042.19;;;10.43;100.00
33845;BME280;20145;43.118;25.694;2023-04-19T03:28:37;99041.41;;;10.39;100.00
33845;BME280;20145;43.118;25.694;2023-04-19T03:31:02;99037.16;;;10.37;100.00
33845;BME280;20145;43.118;25.694;2023-04-19T03:33:28;99043.16;;;10.36;100.00
33845;BME280;20145;43.118;25.694;2023-04-19T03:35:53;99045.81;;;10.33;100.00
33845;BME280;20145;43.118;25.694;2023-04-19T03:38:19;99043.41;;;10.20;100.00
33845;BME280;20145;43.118;25.694;2023-04-19T03:40:44;99041.84;;;10.09;100.00
33845;BME280;20145;43.118;25.694;2023-04-19T03:43:11;99035.91;;;10.05;100.00
33845;BME280;20145;43.118;25.694;2023-04-19T03:45:36;99040.22;;;10.04;100.00
33845;BME280;20145;43.118;25.694;2023-04-19T03:48:02;99034.22;;;10.02;100.00
33845;BME280;20145;43.118;25.694;2023-04-19T03:50:28;99039.28;;;10.09;100.00
33845;BME280;20145;43.118;25.694;2023-04-19T03:52:53;99041.00;;;10.10;100.00
33845;BME280;20145;43.118;25.694;2023-04-19T03:55:19;99040.00;;;10.17;100.00
33845;BME280;20145;43.118;25.694;2023-04-19T03:57:44;99044.28;;;10.19;100.00
33845;BME280;20145;43.118;25.694;2023-04-19T04:00:10;99040.84;;;10.20;100.00
33845;BME280;20145;43.118;25.694;2023-04-19T04:02:37;99047.59;;;10.27;100.00
33845;BME280;20145;43.118;25.694;2023-04-19T04:05:04;99047.59;;;10.29;100.00
33845;BME280;20145;43.118;25.694;2023-04-19T04:07:30;99042.47;;;10.26;100.00
33845;BME280;20145;43.118;25.694;2023-04-19T04:09:55;99044.97;;;10.31;100.00
33845;BME280;20145;43.118;25.694;2023-04-19T04:12:21;99050.97;;;10.33;100.00
33845;BME280;20145;43.118;25.694;2023-04-19T04:14:47;99046.66;;;10.33;100.00
33845;BME280;20145;43.118;25.694;2023-04-19T04:17:12;99055.28;;;10.32;100.00
33845;BME280;20145;43.118;25.694;2023-04-19T04:19:38;99047.53;;;10.34;100.00
33845;BME280;20145;43.118;25.694;2023-04-19T04:22:03;99045.75;;;10.37;100.00
33845;BME280;20145;43.118;25.694;2023-04-19T04:24:30;99041.50;;;10.33;100.00
33845;BME280;20145;43.118;25.694;2023-04-19T04:26:57;99040.66;;;10.33;100.00
33845;BME280;20145;43.118;25.694;2023-04-19T04:29:25;99042.44;;;10.29;100.00
33845;BME280;20145;43.118;25.694;2023-04-19T04:31:51;99045.03;;;10.29;100.00
33845;BME280;20145;43.118;25.694;2023-04-19T04:34:16;99040.69;;;10.30;100.00
33845;BME280;20145;43.118;25.694;2023-04-19T04:36:42;99052.63;;;10.35;100.00
33845;BME280;20145;43.118;25.694;2023-04-19T04:39:07;99046.50;;;10.42;100.00
33845;BME280;20145;43.118;25.694;2023-04-19T04:41:36;99051.50;;;10.50;100.00
33845;BME280;20145;43.118;25.694;2023-04-19T04:44:01;99058.34;;;10.53;100.00
33845;BME280;20145;43.118;25.694;2023-04-19T04:46:29;99059.25;;;10.50;100.00
33845;BME280;20145;43.118;25.694;2023-04-19T04:48:54;99061.88;;;10.48;100.00
33845;BME280;20145;43.118;25.694;2023-04-19T04:51:20;99065.25;;;10.52;100.00
33845;BME280;20145;43.118;25.694;2023-04-19T04:53:45;99062.75;;;10.47;100.00
33845;BME280;20145;43.118;25.694;2023-04-19T04:56:11;99061.09;;;10.45;100.00
33845;BME280;20145;43.118;25.694;2023-04-19T04:58:37;99064.63;;;10.39;100.00
33845;BME280;20145;43.118;25.694;2023-04-19T05:01:02;99061.22;;;10.37;100.00
33845;BME280;20145;43.118;25.694;2023-04-19T05:03:28;99061.28;;;10.33;100.00
33845;BME280;20145;43.118;25.694;2023-04-19T05:05:54;99076.75;;;10.34;100.00
33845;BME280;20145;43.118;25.694;2023-04-19T05:08:19;99071.59;;;10.33;100.00
33845;BME280;20145;43.118;25.694;2023-04-19T05:10:45;99073.31;;;10.32;100.00
33845;BME280;20145;43.118;25.694;2023-04-19T05:13:10;99071.63;;;10.31;100.00
33845;BME280;20145;43.118;25.694;2023-04-19T05:15:36;99066.50;;;10.28;100.00
33845;BME280;20145;43.118;25.694;2023-04-19T05:18:02;99072.53;;;10.27;100.00
33845;BME280;20145;43.118;25.694;2023-04-19T05:20:28;99075.19;;;10.21;100.00
33845;BME280;20145;43.118;25.694;2023-04-19T05:22:57;99076.19;;;10.12;100.00
33845;BME280;20145;43.118;25.694;2023-04-19T05:25:23;99083.16;;;10.07;100.00
33845;BME280;20145;43.118;25.694;2023-04-19T05:27:48;99085.72;;;10.05;100.00
33845;BME280;20145;43.118;25.694;2023-04-19T05:30:14;99077.94;;;10.09;100.00
33845;BME280;20145;43.118;25.694;2023-04-19T05:32:39;99082.22;;;10.11;100.00
33845;BME280;20145;43.118;25.694;2023-04-19T05:35:05;99082.03;;;10.22;100.00
33845;BME280;20145;43.118;25.694;2023-04-19T05:37:31;99084.75;;;10.14;100.00
33845;BME280;20145;43.118;25.694;2023-04-19T05:39:57;99070.31;;;10.04;100.00
33845;BME280;20145;43.118;25.694;2023-04-19T05:42:22;99085.56;;;10.18;100.00
33845;BME280;20145;43.118;25.694;2023-04-19T05:44:48;99083.09;;;10.10;100.00
33845;BME280;20145;43.118;25.694;2023-04-19T05:47:13;99093.25;;;10.19;100.00
33845;BME280;20145;43.118;25.694;2023-04-19T05:49:39;99091.56;;;10.17;100.00
33845;BME280;20145;43.118;25.694;2023-04-19T05:52:04;99095.03;;;10.16;100.00
33845;BME280;20145;43.118;25.694;2023-04-19T05:54:30;99087.28;;;10.17;100.00
33845;BME280;20145;43.118;25.694;2023-04-19T05:57:03;99100.19;;;10.17;100.00
33845;BME280;20145;43.118;25.694;2023-04-19T05:59:28;99097.59;;;10.17;100.00
33845;BME280;20145;43.118;25.694;2023-04-19T06:01:54;99106.97;;;10.21;100.00
33845;BME280;20145;43.118;25.694;2023-04-19T06:04:20;99105.28;;;10.20;100.00
33845;BME280;20145;43.118;25.694;2023-04-19T06:06:46;99113.06;;;10.17;100.00
33845;BME280;20145;43.118;25.694;2023-04-19T06:09:12;99110.44;;;10.20;100.00
33845;BME280;20145;43.118;25.694;2023-04-19T06:11:39;99112.06;;;10.26;100.00
33845;BME280;20145;43.118;25.694;2023-04-19T06:14:05;99113.78;;;10.29;100.00
33845;BME280;20145;43.118;25.694;2023-04-19T06:16:30;99093.41;;;10.10;100.00
33845;BME280;20145;43.118;25.694;2023-04-19T06:18:56;99118.13;;;10.22;100.00
33845;BME280;20145;43.118;25.694;2023-04-19T06:21:21;99121.66;;;10.18;100.00
33845;BME280;20145;43.118;25.694;2023-04-19T06:23:47;99119.19;;;10.09;100.00
33845;BME280;20145;43.118;25.694;2023-04-19T06:26:12;99122.56;;;10.14;100.00
33845;BME280;20145;43.118;25.694;2023-04-19T06:28:38;99129.28;;;10.24;100.00
33845;BME280;20145;43.118;25.694;2023-04-19T06:31:04;99116.41;;;10.22;100.00
33845;BME280;20145;43.118;25.694;2023-04-19T06:33:30;99129.94;;;10.38;100.00
33845;BME280;20145;43.118;25.694;2023-04-19T06:35:55;99128.09;;;10.48;100.00
33845;BME280;20145;43.118;25.694;2023-04-19T06:38:21;99126.25;;;10.55;100.00
33845;BME280;20145;43.118;25.694;2023-04-19T06:40:46;99126.28;;;10.53;100.00
33845;BME280;20145;43.118;25.694;2023-04-19T06:43:12;99099.09;;;10.34;100.00
33845;BME280;20145;43.118;25.694;2023-04-19T06:45:37;99132.53;;;10.40;100.00
33845;BME280;20145;43.118;25.694;2023-04-19T06:48:03;99130.78;;;10.39;100.00
33845;BME280;20145;43.118;25.694;2023-04-19T06:50:29;99130.00;;;10.35;100.00
33845;BME280;20145;43.118;25.694;2023-04-19T06:52:55;99130.13;;;10.27;100.00
33845;BME280;20145;43.118;25.694;2023-04-19T06:55:20;99144.91;;;10.15;100.00
33845;BME280;20145;43.118;25.694;2023-04-19T06:57:46;99138.72;;;10.25;100.00
33845;BME280;20145;43.118;25.694;2023-04-19T07:00:12;99137.03;;;10.22;100.00
33845;BME280;20145;43.118;25.694;2023-04-19T07:02:38;99142.16;;;10.27;100.00
33845;BME280;20145;43.118;25.694;2023-04-19T07:05:04;99144.63;;;10.33;100.00
33845;BME280;20145;43.118;25.694;2023-04-19T07:07:30;99146.94;;;10.50;100.00
33845;BME280;20145;43.118;25.694;2023-04-19T07:09:55;99150.19;;;10.63;100.00
33845;BME280;20145;43.118;25.694;2023-04-19T07:12:21;99144.94;;;10.69;100.00
33845;BME280;20145;43.118;25.694;2023-04-19T07:14:46;99149.84;;;10.84;100.00
33845;BME280;20145;43.118;25.694;2023-04-19T07:17:12;99150.66;;;10.86;100.00
33845;BME280;20145;43.118;25.694;2023-04-19T07:19:38;99151.41;;;10.93;100.00
33845;BME280;20145;43.118;25.694;2023-04-19T07:22:04;99160.00;;;10.93;100.00
33845;BME280;20145;43.118;25.694;2023-04-19T07:24:30;99151.53;;;10.87;100.00
33845;BME280;20145;43.118;25.694;2023-04-19T07:26:56;99153.31;;;10.82;100.00
33845;BME280;20145;43.118;25.694;2023-04-19T07:29:22;99155.00;;;10.83;100.00
33845;BME280;20145;43.118;25.694;2023-04-19T07:31:47;99155.00;;;10.84;100.00
33845;BME280;20145;43.118;25.694;2023-04-19T07:34:13;99152.59;;;10.74;100.00
33845;BME280;20145;43.118;25.694;2023-04-19T07:36:38;99154.03;;;10.90;100.00
33845;BME280;20145;43.118;25.694;2023-04-19T07:39:04;99156.44;;;11.01;100.00
33845;BME280;20145;43.118;25.694;2023-04-19T07:41:30;99160.84;;;10.94;100.00
33845;BME280;20145;43.118;25.694;2023-04-19T07:43:56;99155.63;;;10.97;100.00
33845;BME280;20145;43.118;25.694;2023-04-19T07:46:21;99161.59;;;11.01;100.00
33845;BME280;20145;43.118;25.694;2023-04-19T07:48:47;99156.28;;;11.08;100.00
33845;BME280;20145;43.118;25.694;2023-04-19T07:51:14;99154.00;;;11.38;100.00
33845;BME280;20145;43.118;25.694;2023-04-19T07:53:41;99160.28;;;11.68;100.00
33845;BME280;20145;43.118;25.694;2023-04-19T07:56:08;99152.66;;;11.62;100.00
33845;BME280;20145;43.118;25.694;2023-04-19T07:58:35;99151.09;;;11.55;100.00
33845;BME280;20145;43.118;25.694;2023-04-19T08:01:02;99157.97;;;11.56;100.00
33845;BME280;20145;43.118;25.694;2023-04-19T08:03:29;99147.50;;;11.62;100.00
33845;BME280;20145;43.118;25.694;2023-04-19T08:05:54;99153.59;;;11.58;100.00
33845;BME280;20145;43.118;25.694;2023-04-19T08:08:20;99146.88;;;11.49;100.00
33845;BME280;20145;43.118;25.694;2023-04-19T08:10:46;99144.63;;;11.76;100.00
33845;BME280;20145;43.118;25.694;2023-04-19T08:13:11;99146.31;;;11.78;100.00
33845;BME280;20145;43.118;25.694;2023-04-19T08:15:37;99152.47;;;11.71;100.00
33845;BME280;20145;43.118;25.694;2023-04-19T08:18:03;99149.78;;;12.16;100.00
33845;BME280;20145;43.118;25.694;2023-04-19T08:20:30;99149.41;;;11.96;100.00
33845;BME280;20145;43.118;25.694;2023-04-19T08:22:58;99146.97;;;11.90;100.00
33845;BME280;20145;43.118;25.694;2023-04-19T08:25:23;99145.16;;;11.93;100.00
33845;BME280;20145;43.118;25.694;2023-04-19T08:27:55;99142.72;;;11.86;100.00
33845;BME280;20145;43.118;25.694;2023-04-19T08:30:23;99144.97;;;12.01;100.00
33845;BME280;20145;43.118;25.694;2023-04-19T08:32:49;99143.75;;;12.17;100.00
33845;BME280;20145;43.118;25.694;2023-04-19T08:35:15;99144.81;;;12.46;100.00
33845;BME280;20145;43.118;25.694;2023-04-19T08:37:41;99141.94;;;12.92;99.64
33845;BME280;20145;43.118;25.694;2023-04-19T08:40:07;99124.16;;;13.11;95.75
33845;BME280;20145;43.118;25.694;2023-04-19T08:42:32;99132.38;;;13.27;96.25
33845;BME280;20145;43.118;25.694;2023-04-19T08:45:02;99135.59;;;13.35;96.33
33845;BME280;20145;43.118;25.694;2023-04-19T08:47:33;99129.63;;;13.33;95.94
33845;BME280;20145;43.118;25.694;2023-04-19T08:50:00;99127.38;;;13.52;95.33
33845;BME280;20145;43.118;25.694;2023-04-19T08:52:26;99131.53;;;13.58;94.30
33845;BME280;20145;43.118;25.694;2023-04-19T08:54:53;99133.34;;;13.23;93.31
33845;BME280;20145;43.118;25.694;2023-04-19T08:57:19;99134.03;;;13.61;94.17
33845;BME280;20145;43.118;25.694;2023-04-19T08:59:45;99132.66;;;14.07;91.25
33845;BME280;20145;43.118;25.694;2023-04-19T09:02:13;99141.56;;;14.55;88.71
33845;BME280;20145;43.118;25.694;2023-04-19T09:04:40;99139.53;;;14.64;87.17
33845;BME280;20145;43.118;25.694;2023-04-19T09:07:05;99144.16;;;15.06;85.57
33845;BME280;20145;43.118;25.694;2023-04-19T09:09:33;99143.56;;;15.23;85.26
33845;BME280;20145;43.118;25.694;2023-04-19T09:12:00;99139.59;;;14.88;86.09
33845;BME280;20145;43.118;25.694;2023-04-19T09:14:27;99144.16;;;15.06;90.23
33845;BME280;20145;43.118;25.694;2023-04-19T09:16:53;99142.94;;;15.16;87.30
33845;BME280;20145;43.118;25.694;2023-04-19T09:19:19;99145.56;;;15.40;86.46
33845;BME280;20145;43.118;25.694;2023-04-19T09:21:45;99138.03;;;15.57;84.26
33845;BME280;20145;43.118;25.694;2023-04-19T09:24:10;99136.41;;;15.78;80.87
33845;BME280;20145;43.118;25.694;2023-04-19T09:26:36;99144.06;;;15.58;83.03
33845;BME280;20145;43.118;25.694;2023-04-19T09:29:04;99134.22;;;15.66;83.73
33845;BME280;20145;43.118;25.694;2023-04-19T09:31:31;99155.09;;;15.16;84.63
33845;BME280;20145;43.118;25.694;2023-04-19T09:33:57;99151.75;;;15.12;83.94
33845;BME280;20145;43.118;25.694;2023-04-19T09:36:36;99149.50;;;15.27;87.90
33845;BME280;20145;43.118;25.694;2023-04-19T09:39:01;99141.66;;;15.52;84.35
33845;BME280;20145;43.118;25.694;2023-04-19T09:41:27;99150.56;;;15.71;84.12
33845;BME280;20145;43.118;25.694;2023-04-19T09:43:53;99158.53;;;15.16;84.64
33845;BME280;20145;43.118;25.694;2023-04-19T09:46:34;99149.06;;;14.64;88.66
33845;BME280;20145;43.118;25.694;2023-04-19T09:51:42;99159.19;;;14.43;89.31
33845;BME280;20145;43.118;25.694;2023-04-19T09:54:10;99153.84;;;14.76;87.00
33845;BME280;20145;43.118;25.694;2023-04-19T09:56:36;99155.72;;;14.98;84.79
33845;BME280;20145;43.118;25.694;2023-04-19T09:59:03;99154.78;;;15.00;84.74
33845;BME280;20145;43.118;25.694;2023-04-19T10:01:43;99154.03;;;14.71;85.27
33845;BME280;20145;43.118;25.694;2023-04-19T10:04:10;99156.09;;;14.87;86.92
33845;BME280;20145;43.118;25.694;2023-04-19T10:06:38;99147.94;;;15.46;84.66
33845;BME280;20145;43.118;25.694;2023-04-19T10:09:05;99146.22;;;15.94;83.45
33845;BME280;20145;43.118;25.694;2023-04-19T10:11:36;99144.81;;;16.07;80.21
33845;BME280;20145;43.118;25.694;2023-04-19T10:14:06;99143.75;;;15.91;80.84
33845;BME280;20145;43.118;25.694;2023-04-19T10:16:33;99152.72;;;16.05;79.88
33845;BME280;20145;43.118;25.694;2023-04-19T10:19:00;99144.63;;;16.13;78.09
33845;BME280;20145;43.118;25.694;2023-04-19T10:21:27;99145.03;;;16.24;75.43
33845;BME280;20145;43.118;25.694;2023-04-19T10:23:54;99144.06;;;16.49;75.24
33845;BME280;20145;43.118;25.694;2023-04-19T10:26:21;99141.56;;;16.46;73.83
33845;BME280;20145;43.118;25.694;2023-04-19T10:28:47;99141.59;;;16.24;72.47
33845;BME280;20145;43.118;25.694;2023-04-19T10:31:13;99140.38;;;16.11;72.32
33845;BME280;20145;43.118;25.694;2023-04-19T10:33:39;99133.94;;;15.97;72.45
33845;BME280;20145;43.118;25.694;2023-04-19T10:36:09;99137.94;;;15.59;76.70
33845;BME280;20145;43.118;25.694;2023-04-19T10:38:43;99134.16;;;15.69;77.99
33845;BME280;20145;43.118;25.694;2023-04-19T10:41:12;99138.06;;;15.56;80.73
33845;BME280;20145;43.118;25.694;2023-04-19T10:46:14;99141.66;;;15.77;78.36
33845;BME280;20145;43.118;25.694;2023-04-19T10:48:58;99138.19;;;16.00;77.74
33845;BME280;20145;43.118;25.694;2023-04-19T10:51:39;99133.22;;;15.94;77.22
33845;BME280;20145;43.118;25.694;2023-04-19T10:54:38;99137.41;;;16.42;74.34
33845;BME280;20145;43.118;25.694;2023-04-19T10:57:07;99132.06;;;16.87;71.27
33845;BME280;20145;43.118;25.694;2023-04-19T10:59:36;99132.06;;;17.08;71.84
33845;BME280;20145;43.118;25.694;2023-04-19T11:02:25;99132.75;;;17.32;70.11
33845;BME280;20145;43.118;25.694;2023-04-19T11:07:15;99135.78;;;17.23;68.17
33845;BME280;20145;43.118;25.694;2023-04-19T11:09:48;99129.53;;;16.86;67.45
33845;BME280;20145;43.118;25.694;2023-04-19T11:12:19;99132.16;;;16.64;68.86
33845;BME280;20145;43.118;25.694;2023-04-19T11:14:51;99124.38;;;16.62;68.60
33845;BME280;20145;43.118;25.694;2023-04-19T11:17:21;99126.16;;;16.62;64.89
33845;BME280;20145;43.118;25.694;2023-04-19T11:20:02;99111.94;;;16.48;67.51
33845;BME280;20145;43.118;25.694;2023-04-19T11:22:39;99111.13;;;16.68;67.01
33845;BME280;20145;43.118;25.694;2023-04-19T11:25:06;99111.84;;;16.72;65.77
33845;BME280;20145;43.118;25.694;2023-04-19T11:27:33;99112.31;;;16.82;66.87
33845;BME280;20145;43.118;25.694;2023-04-19T11:30:05;99103.31;;;17.09;67.24
33845;BME280;20145;43.118;25.694;2023-04-19T11:32:31;99105.44;;;16.81;66.87
33845;BME280;20145;43.118;25.694;2023-04-19T11:34:57;99108.25;;;16.97;65.86
33845;BME280;20145;43.118;25.694;2023-04-19T11:37:22;99109.00;;;16.78;68.56
33845;BME280;20145;43.118;25.694;2023-04-19T11:39:48;99100.34;;;16.98;68.64
33845;BME280;20145;43.118;25.694;2023-04-19T11:42:17;99105.22;;;17.06;68.31
33845;BME280;20145;43.118;25.694;2023-04-19T11:44:48;99086.25;;;16.61;68.00
33845;BME280;20145;43.118;25.694;2023-04-19T11:47:15;99105.72;;;17.14;66.49
33845;BME280;20145;43.118;25.694;2023-04-19T11:49:40;99099.34;;;17.21;66.93
33845;BME280;20145;43.118;25.694;2023-04-19T11:52:06;99093.06;;;17.25;66.01
33845;BME280;20145;43.118;25.694;2023-04-19T11:54:31;99097.34;;;16.87;68.88
33845;BME280;20145;43.118;25.694;2023-04-19T11:59:23;99088.47;;;17.11;68.85
33845;BME280;20145;43.118;25.694;2023-04-19T12:01:48;99088.47;;;17.11;65.61
33845;BME280;20145;43.118;25.694;2023-04-19T12:04:14;99083.34;;;17.10;65.96
33845;BME280;20145;43.118;25.694;2023-04-19T12:06:40;99083.31;;;17.49;66.44
33845;BME280;20145;43.118;25.694;2023-04-19T12:09:07;99085.19;;;17.65;64.31
33845;BME280;20145;43.118;25.694;2023-04-19T12:11:43;99079.41;;;17.77;64.62
33845;BME280;20145;43.118;25.694;2023-04-19T12:14:14;99078.78;;;17.34;63.08
33845;BME280;20145;43.118;25.694;2023-04-19T12:16:40;99064.56;;;17.60;64.28
33845;BME280;20145;43.118;25.694;2023-04-19T12:19:19;99053.34;;;17.39;63.68
33845;BME280;20145;43.118;25.694;2023-04-19T12:21:45;99064.38;;;17.25;63.04
33845;BME280;20145;43.118;25.694;2023-04-19T12:24:14;99059.09;;;17.65;62.26
33845;BME280;20145;43.118;25.694;2023-04-19T12:26:53;99047.81;;;18.02;61.35
33845;BME280;20145;43.118;25.694;2023-04-19T12:29:22;99051.47;;;17.98;60.86
33845;BME280;20145;43.118;25.694;2023-04-19T12:31:48;99044.00;;;17.90;63.16
33845;BME280;20145;43.118;25.694;2023-04-19T12:34:13;99041.56;;;17.30;63.67
33845;BME280;20145;43.118;25.694;2023-04-19T12:36:39;99034.06;;;17.23;64.53
33845;BME280;20145;43.118;25.694;2023-04-19T12:39:04;99027.47;;;17.15;65.33
33845;BME280;20145;43.118;25.694;2023-04-19T12:41:31;99027.06;;;17.04;65.14
33845;BME280;20145;43.118;25.694;2023-04-19T12:43:57;99032.69;;;17.15;64.41
33845;BME280;20145;43.118;25.694;2023-04-19T12:46:22;99027.31;;;17.19;65.03
33845;BME280;20145;43.118;25.694;2023-04-19T12:48:48;99030.56;;;17.24;62.15
33845;BME280;20145;43.118;25.694;2023-04-19T12:51:13;99032.44;;;17.01;61.46